sensor_id;sensor_type;location;lat;lon;timestamp;P1;durP1;ratioP1;P2;durP2;ratioP2
5454;SDS011;2750;49.050;9.250;2023-11-19T00:01:45;4.20;;;3.80;;
5454;SDS011;2750;49.050;9.250;2023-11-19T00:06:47;4.53;;;4.10;;
5454;SDS011;2750;49.050;9.250;2023-11-19T00:11:49;4.97;;;4.47;;
5454;SDS011;2750;49.050;9.250;2023-11-19T00:16:52;5.73;;;4.30;;
5454;SDS011;2750;49.050;9.250;2023-11-19T00:21:53;6.53;;;4.40;;
5454;SDS011;2750;49.050;9.250;2023-11-19T00:26:55;4.83;;;4.10;;
5454;SDS011;2750;49.050;9.250;2023-11-19T00:31:58;3.90;;;3.60;;
5454;SDS011;2750;49.050;9.250;2023-11-19T00:36:59;7.03;;;4.27;;
5454;SDS011;2750;49.050;9.250;2023-11-19T00:42:01;5.27;;;3.30;;
5454;SDS011;2750;49.050;9.250;2023-11-19T00:47:04;8.10;;;4.43;;
5454;SDS011;2750;49.050;9.250;2023-11-19T00:52:05;5.13;;;3.90;;
5454;SDS011;2750;49.050;9.250;2023-11-19T00:57:07;6.43;;;3.63;;
5454;SDS011;2750;49.050;9.250;2023-11-19T01:02:10;7.47;;;5.53;;
5454;SDS011;2750;49.050;9.250;2023-11-19T01:07:11;5.37;;;4.40;;
5454;SDS011;2750;49.050;9.250;2023-11-19T01:12:13;4.90;;;4.00;;
5454;SDS011;2750;49.050;9.250;2023-11-19T01:17:16;5.43;;;4.83;;
5454;SDS011;2750;49.050;9.250;2023-11-19T01:22:18;5.20;;;4.70;;
5454;SDS011;2750;49.050;9.250;2023-11-19T01:27:20;7.90;;;5.17;;
5454;SDS011;2750;49.050;9.250;2023-11-19T01:32:22;7.20;;;4.90;;
5454;SDS011;2750;49.050;9.250;2023-11-19T01:37:24;7.63;;;4.67;;
5454;SDS011;2750;49.050;9.250;2023-11-19T01:42:26;8.37;;;5.67;;
5454;SDS011;2750;49.050;9.250;2023-11-19T01:47:30;6.03;;;5.43;;
5454;SDS011;2750;49.050;9.250;2023-11-19T01:52:32;6.17;;;5.23;;
5454;SDS011;2750;49.050;9.250;2023-11-19T01:57:36;6.93;;;4.73;;
5454;SDS011;2750;49.050;9.250;2023-11-19T02:02:42;5.67;;;4.97;;
5454;SDS011;2750;49.050;9.250;2023-11-19T02:07:44;5.83;;;4.83;;
5454;SDS011;2750;49.050;9.250;2023-11-19T02:12:46;6.23;;;4.97;;
5454;SDS011;2750;49.050;9.250;2023-11-19T02:17:49;5.80;;;4.63;;
5454;SDS011;2750;49.050;9.250;2023-11-19T02:22:51;7.77;;;6.37;;
5454;SDS011;2750;49.050;9.250;2023-11-19T02:27:55;7.83;;;6.40;;
5454;SDS011;2750;49.050;9.250;2023-11-19T02:32:59;7.43;;;6.30;;
5454;SDS011;2750;49.050;9.250;2023-11-19T02:38:05;8.80;;;5.70;;
5454;SDS011;2750;49.050;9.250;2023-11-19T02:43:08;7.67;;;5.93;;
5454;SDS011;2750;49.050;9.250;2023-11-19T02:48:10;6.30;;;5.63;;
5454;SDS011;2750;49.050;9.250;2023-11-19T02:53:11;6.70;;;5.70;;
5454;SDS011;2750;49.050;9.250;2023-11-19T02:58:14;7.47;;;5.50;;
5454;SDS011;2750;49.050;9.250;2023-11-19T03:03:23;12.23;;;7.30;;
5454;SDS011;2750;49.050;9.250;2023-11-19T03:08:30;7.80;;;6.03;;
5454;SDS011;2750;49.050;9.250;2023-11-19T03:13:34;7.80;;;6.47;;
5454;SDS011;2750;49.050;9.250;2023-11-19T03:18:35;11.70;;;7.07;;
5454;SDS011;2750;49.050;9.250;2023-11-19T03:23:36;9.97;;;7.30;;
5454;SDS011;2750;49.050;9.250;2023-11-19T03:28:41;7.27;;;6.33;;
5454;SDS011;2750;49.050;9.250;2023-11-19T03:33:43;6.97;;;4.93;;
5454;SDS011;2750;49.050;9.250;2023-11-19T03:38:45;7.57;;;6.03;;
5454;SDS011;2750;49.050;9.250;2023-11-19T03:43:48;10.63;;;5.67;;
5454;SDS011;2750;49.050;9.250;2023-11-19T03:48:49;8.90;;;6.97;;
5454;SDS011;2750;49.050;9.250;2023-11-19T03:53:51;8.47;;;6.73;;
5454;SDS011;2750;49.050;9.250;2023-11-19T03:58:54;7.70;;;6.53;;
5454;SDS011;2750;49.050;9.250;2023-11-19T04:03:55;8.20;;;6.30;;
5454;SDS011;2750;49.050;9.250;2023-11-19T04:08:57;6.67;;;5.37;;
5454;SDS011;2750;49.050;9.250;2023-11-19T04:14:00;7.40;;;5.70;;
5454;SDS011;2750;49.050;9.250;2023-11-19T04:19:01;7.87;;;6.57;;
5454;SDS011;2750;49.050;9.250;2023-11-19T04:24:03;6.87;;;6.07;;
5454;SDS011;2750;49.050;9.250;2023-11-19T04:29:06;5.70;;;4.23;;
5454;SDS011;2750;49.050;9.250;2023-11-19T04:34:08;4.27;;;3.80;;
5454;SDS011;2750;49.050;9.250;2023-11-19T04:39:11;5.60;;;3.70;;
5454;SDS011;2750;49.050;9.250;2023-11-19T04:44:14;3.97;;;3.57;;
5454;SDS011;2750;49.050;9.250;2023-11-19T04:49:15;4.33;;;3.80;;
5454;SDS011;2750;49.050;9.250;2023-11-19T04:54:18;4.60;;;3.67;;
5454;SDS011;2750;49.050;9.250;2023-11-19T04:59:21;4.30;;;3.87;;
5454;SDS011;2750;49.050;9.250;2023-11-19T05:04:22;4.80;;;3.40;;
5454;SDS011;2750;49.050;9.250;2023-11-19T05:09:24;3.30;;;3.00;;
5454;SDS011;2750;49.050;9.250;2023-11-19T05:14:27;2.20;;;2.00;;
5454;SDS011;2750;49.050;9.250;2023-11-19T05:19:28;2.67;;;1.77;;
5454;SDS011;2750;49.050;9.250;2023-11-19T05:24:31;1.57;;;1.47;;
5454;SDS011;2750;49.050;9.250;2023-11-19T05:29:34;1.60;;;1.50;;
5454;SDS011;2750;49.050;9.250;2023-11-19T05:34:35;3.10;;;1.53;;
5454;SDS011;2750;49.050;9.250;2023-11-19T05:39:37;2.17;;;1.50;;
5454;SDS011;2750;49.050;9.250;2023-11-19T05:44:39;2.57;;;1.60;;
5454;SDS011;2750;49.050;9.250;2023-11-19T05:49:41;1.30;;;1.20;;
5454;SDS011;2750;49.050;9.250;2023-11-19T05:54:43;1.40;;;1.30;;
5454;SDS011;2750;49.050;9.250;2023-11-19T05:59:48;2.40;;;1.20;;
5454;SDS011;2750;49.050;9.250;2023-11-19T06:04:50;1.10;;;1.00;;
5454;SDS011;2750;49.050;9.250;2023-11-19T06:09:51;1.20;;;1.10;;
5454;SDS011;2750;49.050;9.250;2023-11-19T06:14:54;1.17;;;1.00;;
5454;SDS011;2750;49.050;9.250;2023-11-19T06:19:56;1.77;;;1.00;;
5454;SDS011;2750;49.050;9.250;2023-11-19T06:24:58;1.33;;;1.03;;
5454;SDS011;2750;49.050;9.250;2023-11-19T06:30:01;1.67;;;1.00;;
5454;SDS011;2750;49.050;9.250;2023-11-19T06:35:03;1.07;;;0.97;;
5454;SDS011;2750;49.050;9.250;2023-11-19T06:40:06;0.70;;;0.70;;
5454;SDS011;2750;49.050;9.250;2023-11-19T06:45:10;1.50;;;0.80;;
5454;SDS011;2750;49.050;9.250;2023-11-19T06:50:12;0.80;;;0.80;;
5454;SDS011;2750;49.050;9.250;2023-11-19T06:55:15;3.50;;;0.70;;
5454;SDS011;2750;49.050;9.250;2023-11-19T07:00:21;0.70;;;0.70;;
5454;SDS011;2750;49.050;9.250;2023-11-19T07:05:23;1.43;;;0.73;;
5454;SDS011;2750;49.050;9.250;2023-11-19T07:10:24;1.33;;;0.77;;
5454;SDS011;2750;49.050;9.250;2023-11-19T07:15:27;0.70;;;0.70;;
5454;SDS011;2750;49.050;9.250;2023-11-19T07:20:29;1.13;;;0.73;;
5454;SDS011;2750;49.050;9.250;2023-11-19T07:25:31;0.60;;;0.60;;
5454;SDS011;2750;49.050;9.250;2023-11-19T07:30:34;0.87;;;0.67;;
5454;SDS011;2750;49.050;9.250;2023-11-19T07:35:35;2.00;;;0.80;;
5454;SDS011;2750;49.050;9.250;2023-11-19T07:40:37;0.90;;;0.90;;
5454;SDS011;2750;49.050;9.250;2023-11-19T07:45:40;0.70;;;0.70;;
5454;SDS011;2750;49.050;9.250;2023-11-19T07:50:45;1.53;;;0.97;;
5454;SDS011;2750;49.050;9.250;2023-11-19T07:55:47;3.33;;;0.90;;
5454;SDS011;2750;49.050;9.250;2023-11-19T08:00:50;1.23;;;0.80;;
5454;SDS011;2750;49.050;9.250;2023-11-19T08:05:52;1.37;;;0.70;;
5454;SDS011;2750;49.050;9.250;2023-11-19T08:10:56;0.80;;;0.80;;
5454;SDS011;2750;49.050;9.250;2023-11-19T08:15:59;1.17;;;0.90;;
5454;SDS011;2750;49.050;9.250;2023-11-19T08:21:00;1.23;;;1.07;;
5454;SDS011;2750;49.050;9.250;2023-11-19T08:26:04;1.13;;;0.90;;
5454;SDS011;2750;49.050;9.250;2023-11-19T08:31:08;0.93;;;0.90;;
5454;SDS011;2750;49.050;9.250;2023-11-19T08:36:14;1.90;;;1.10;;
5454;SDS011;2750;49.050;9.250;2023-11-19T08:41:16;1.67;;;0.80;;
5454;SDS011;2750;49.050;9.250;2023-11-19T08:46:20;1.60;;;1.00;;
5454;SDS011;2750;49.050;9.250;2023-11-19T08:51:22;1.70;;;0.60;;
5454;SDS011;2750;49.050;9.250;2023-11-19T08:56:24;2.50;;;1.17;;
5454;SDS011;2750;49.050;9.250;2023-11-19T09:01:33;1.07;;;0.90;;
5454;SDS011;2750;49.050;9.250;2023-11-19T09:06:35;2.13;;;1.20;;
5454;SDS011;2750;49.050;9.250;2023-11-19T09:11:37;2.77;;;1.10;;
5454;SDS011;2750;49.050;9.250;2023-11-19T09:16:40;2.03;;;1.10;;
5454;SDS011;2750;49.050;9.250;2023-11-19T09:21:41;1.93;;;0.90;;
5454;SDS011;2750;49.050;9.250;2023-11-19T09:26:43;1.23;;;1.00;;
5454;SDS011;2750;49.050;9.250;2023-11-19T09:31:45;0.87;;;0.73;;
5454;SDS011;2750;49.050;9.250;2023-11-19T09:36:47;2.83;;;1.03;;
5454;SDS011;2750;49.050;9.250;2023-11-19T09:41:48;1.23;;;0.93;;
5454;SDS011;2750;49.050;9.250;2023-11-19T09:46:51;1.10;;;1.00;;
5454;SDS011;2750;49.050;9.250;2023-11-19T09:51:54;1.67;;;1.10;;
5454;SDS011;2750;49.050;9.250;2023-11-19T09:56:55;2.53;;;1.10;;
5454;SDS011;2750;49.050;9.250;2023-11-19T10:02:04;1.13;;;0.80;;
5454;SDS011;2750;49.050;9.250;2023-11-19T10:07:05;2.73;;;1.00;;
5454;SDS011;2750;49.050;9.250;2023-11-19T10:12:07;1.43;;;0.77;;
5454;SDS011;2750;49.050;9.250;2023-11-19T10:17:10;1.00;;;0.90;;
5454;SDS011;2750;49.050;9.250;2023-11-19T10:22:11;1.30;;;0.90;;
5454;SDS011;2750;49.050;9.250;2023-11-19T10:27:15;1.20;;;0.70;;
5454;SDS011;2750;49.050;9.250;2023-11-19T10:32:17;2.10;;;1.07;;
5454;SDS011;2750;49.050;9.250;2023-11-19T10:37:28;1.90;;;0.93;;
5454;SDS011;2750;49.050;9.250;2023-11-19T10:42:31;1.50;;;0.80;;
5454;SDS011;2750;49.050;9.250;2023-11-19T10:47:34;0.97;;;0.80;;
5454;SDS011;2750;49.050;9.250;2023-11-19T10:52:37;1.00;;;0.90;;
5454;SDS011;2750;49.050;9.250;2023-11-19T10:57:39;2.10;;;1.10;;
5454;SDS011;2750;49.050;9.250;2023-11-19T11:02:46;1.20;;;0.80;;
5454;SDS011;2750;49.050;9.250;2023-11-19T11:07:55;4.93;;;1.63;;
5454;SDS011;2750;49.050;9.250;2023-11-19T11:12:57;1.43;;;0.90;;
5454;SDS011;2750;49.050;9.250;2023-11-19T11:18:02;2.30;;;1.30;;
5454;SDS011;2750;49.050;9.250;2023-11-19T11:23:13;2.07;;;1.30;;
5454;SDS011;2750;49.050;9.250;2023-11-19T11:28:31;3.30;;;1.43;;
5454;SDS011;2750;49.050;9.250;2023-11-19T11:33:45;2.57;;;1.30;;
5454;SDS011;2750;49.050;9.250;2023-11-19T11:39:01;1.20;;;0.90;;
5454;SDS011;2750;49.050;9.250;2023-11-19T11:44:07;1.63;;;1.00;;
5454;SDS011;2750;49.050;9.250;2023-11-19T11:49:10;0.87;;;0.73;;
5454;SDS011;2750;49.050;9.250;2023-11-19T11:54:25;2.33;;;1.20;;
5454;SDS011;2750;49.050;9.250;2023-11-19T11:59:31;0.90;;;0.77;;
5454;SDS011;2750;49.050;9.250;2023-11-19T12:04:38;7.50;;;1.67;;
5454;SDS011;2750;49.050;9.250;2023-11-19T12:09:41;1.53;;;0.87;;
5454;SDS011;2750;49.050;9.250;2023-11-19T12:15:02;2.70;;;1.07;;
5454;SDS011;2750;49.050;9.250;2023-11-19T12:20:07;2.70;;;0.90;;
5454;SDS011;2750;49.050;9.250;2023-11-19T12:25:10;2.33;;;0.97;;
5454;SDS011;2750;49.050;9.250;2023-11-19T12:30:14;2.33;;;1.00;;
5454;SDS011;2750;49.050;9.250;2023-11-19T12:35:19;1.03;;;0.93;;
5454;SDS011;2750;49.050;9.250;2023-11-19T12:40:21;2.93;;;0.97;;
5454;SDS011;2750;49.050;9.250;2023-11-19T12:45:24;2.07;;;1.10;;
5454;SDS011;2750;49.050;9.250;2023-11-19T12:50:27;2.83;;;1.20;;
5454;SDS011;2750;49.050;9.250;2023-11-19T12:55:28;2.07;;;1.00;;
5454;SDS011;2750;49.050;9.250;2023-11-19T13:00:32;3.07;;;1.57;;
5454;SDS011;2750;49.050;9.250;2023-11-19T13:05:36;1.80;;;1.20;;
5454;SDS011;2750;49.050;9.250;2023-11-19T13:10:49;1.27;;;0.90;;
5454;SDS011;2750;49.050;9.250;2023-11-19T13:15:52;2.97;;;1.30;;
5454;SDS011;2750;49.050;9.250;2023-11-19T13:20:55;1.87;;;1.13;;
5454;SDS011;2750;49.050;9.250;2023-11-19T13:25:57;1.20;;;0.80;;
5454;SDS011;2750;49.050;9.250;2023-11-19T13:30:58;1.00;;;0.77;;
5454;SDS011;2750;49.050;9.250;2023-11-19T13:36:01;1.63;;;1.10;;
5454;SDS011;2750;49.050;9.250;2023-11-19T13:41:06;2.37;;;0.97;;
5454;SDS011;2750;49.050;9.250;2023-11-19T13:46:09;3.00;;;1.10;;
5454;SDS011;2750;49.050;9.250;2023-11-19T13:51:12;1.67;;;1.00;;
5454;SDS011;2750;49.050;9.250;2023-11-19T13:56:13;1.87;;;1.20;;
5454;SDS011;2750;49.050;9.250;2023-11-19T14:01:15;1.00;;;0.90;;
5454;SDS011;2750;49.050;9.250;2023-11-19T14:06:18;2.40;;;1.00;;
5454;SDS011;2750;49.050;9.250;2023-11-19T14:11:20;2.67;;;1.00;;
5454;SDS011;2750;49.050;9.250;2023-11-19T14:16:22;2.83;;;0.90;;
5454;SDS011;2750;49.050;9.250;2023-11-19T14:21:28;1.97;;;1.10;;
5454;SDS011;2750;49.050;9.250;2023-11-19T14:26:30;3.20;;;0.97;;
5454;SDS011;2750;49.050;9.250;2023-11-19T14:31:32;2.03;;;1.10;;
5454;SDS011;2750;49.050;9.250;2023-11-19T14:36:34;1.63;;;1.20;;
5454;SDS011;2750;49.050;9.250;2023-11-19T14:41:36;1.67;;;1.00;;
5454;SDS011;2750;49.050;9.250;2023-11-19T14:46:38;1.67;;;0.93;;
5454;SDS011;2750;49.050;9.250;2023-11-19T14:51:41;3.10;;;1.20;;
5454;SDS011;2750;49.050;9.250;2023-11-19T14:56:43;3.10;;;1.60;;
5454;SDS011;2750;49.050;9.250;2023-11-19T15:01:44;1.60;;;0.93;;
5454;SDS011;2750;49.050;9.250;2023-11-19T15:06:47;1.47;;;1.10;;
5454;SDS011;2750;49.050;9.250;2023-11-19T15:11:49;1.77;;;1.10;;
5454;SDS011;2750;49.050;9.250;2023-11-19T15:16:50;1.33;;;1.17;;
5454;SDS011;2750;49.050;9.250;2023-11-19T15:21:53;2.43;;;1.20;;
5454;SDS011;2750;49.050;9.250;2023-11-19T15:26:56;1.80;;;1.10;;
5454;SDS011;2750;49.050;9.250;2023-11-19T15:31:57;1.93;;;1.03;;
5454;SDS011;2750;49.050;9.250;2023-11-19T15:37:00;2.10;;;1.03;;
5454;SDS011;2750;49.050;9.250;2023-11-19T15:42:02;2.40;;;1.10;;
5454;SDS011;2750;49.050;9.250;2023-11-19T15:47:03;1.20;;;1.10;;
5454;SDS011;2750;49.050;9.250;2023-11-19T15:52:06;2.67;;;1.40;;
5454;SDS011;2750;49.050;9.250;2023-11-19T15:57:09;3.30;;;1.37;;
5454;SDS011;2750;49.050;9.250;2023-11-19T16:02:10;4.97;;;1.13;;
5454;SDS011;2750;49.050;9.250;2023-11-19T16:07:13;2.33;;;1.47;;
5454;SDS011;2750;49.050;9.250;2023-11-19T16:12:15;2.77;;;1.47;;
5454;SDS011;2750;49.050;9.250;2023-11-19T16:17:16;2.97;;;1.20;;
5454;SDS011;2750;49.050;9.250;2023-11-19T16:22:19;3.77;;;1.40;;
5454;SDS011;2750;49.050;9.250;2023-11-19T16:27:20;1.70;;;1.10;;
5454;SDS011;2750;49.050;9.250;2023-11-19T16:32:22;2.47;;;1.43;;
5454;SDS011;2750;49.050;9.250;2023-11-19T16:37:25;2.30;;;1.40;;
5454;SDS011;2750;49.050;9.250;2023-11-19T16:42:26;2.27;;;1.10;;
5454;SDS011;2750;49.050;9.250;2023-11-19T16:47:28;1.83;;;1.10;;
5454;SDS011;2750;49.050;9.250;2023-11-19T16:52:31;1.43;;;1.20;;
5454;SDS011;2750;49.050;9.250;2023-11-19T16:57:32;3.93;;;1.40;;
5454;SDS011;2750;49.050;9.250;2023-11-19T17:02:34;3.23;;;1.27;;
5454;SDS011;2750;49.050;9.250;2023-11-19T17:07:36;3.33;;;1.57;;
5454;SDS011;2750;49.050;9.250;2023-11-19T17:12:39;2.23;;;1.17;;
5454;SDS011;2750;49.050;9.250;2023-11-19T17:17:41;2.07;;;1.50;;
5454;SDS011;2750;49.050;9.250;2023-11-19T17:22:44;3.57;;;1.50;;
5454;SDS011;2750;49.050;9.250;2023-11-19T17:27:45;2.50;;;1.50;;
5454;SDS011;2750;49.050;9.250;2023-11-19T17:32:46;3.60;;;1.60;;
5454;SDS011;2750;49.050;9.250;2023-11-19T17:37:49;1.47;;;1.30;;
5454;SDS011;2750;49.050;9.250;2023-11-19T17:42:51;2.97;;;1.70;;
5454;SDS011;2750;49.050;9.250;2023-11-19T17:47:52;2.23;;;1.60;;
5454;SDS011;2750;49.050;9.250;2023-11-19T17:52:56;1.37;;;1.20;;
5454;SDS011;2750;49.050;9.250;2023-11-19T17:57:58;2.17;;;1.57;;
5454;SDS011;2750;49.050;9.250;2023-11-19T18:02:59;5.50;;;1.63;;
5454;SDS011;2750;49.050;9.250;2023-11-19T18:08:02;3.23;;;1.30;;
5454;SDS011;2750;49.050;9.250;2023-11-19T18:13:05;6.20;;;1.63;;
5454;SDS011;2750;49.050;9.250;2023-11-19T18:18:07;2.37;;;1.67;;
5454;SDS011;2750;49.050;9.250;2023-11-19T18:23:10;4.70;;;1.97;;
5454;SDS011;2750;49.050;9.250;2023-11-19T18:28:11;2.97;;;1.63;;
5454;SDS011;2750;49.050;9.250;2023-11-19T18:33:13;3.50;;;2.17;;
5454;SDS011;2750;49.050;9.250;2023-11-19T18:38:16;3.80;;;1.87;;
5454;SDS011;2750;49.050;9.250;2023-11-19T18:43:17;2.83;;;1.67;;
5454;SDS011;2750;49.050;9.250;2023-11-19T18:48:19;2.93;;;2.10;;
5454;SDS011;2750;49.050;9.250;2023-11-19T18:53:22;3.37;;;1.53;;
5454;SDS011;2750;49.050;9.250;2023-11-19T18:58:23;4.77;;;2.00;;
5454;SDS011;2750;49.050;9.250;2023-11-19T19:03:25;4.30;;;2.30;;
5454;SDS011;2750;49.050;9.250;2023-11-19T19:08:32;6.63;;;1.97;;
5454;SDS011;2750;49.050;9.250;2023-11-19T19:13:34;5.60;;;1.90;;
5454;SDS011;2750;49.050;9.250;2023-11-19T19:18:35;5.77;;;2.07;;
5454;SDS011;2750;49.050;9.250;2023-11-19T19:23:38;6.33;;;2.33;;
5454;SDS011;2750;49.050;9.250;2023-11-19T19:28:40;6.40;;;2.23;;
5454;SDS011;2750;49.050;9.250;2023-11-19T19:33:41;6.80;;;2.17;;
5454;SDS011;2750;49.050;9.250;2023-11-19T19:38:44;9.60;;;2.60;;
5454;SDS011;2750;49.050;9.250;2023-11-19T19:43:46;5.93;;;2.23;;
5454;SDS011;2750;49.050;9.250;2023-11-19T19:48:48;6.07;;;2.80;;
5454;SDS011;2750;49.050;9.250;2023-11-19T19:53:52;6.63;;;2.50;;
5454;SDS011;2750;49.050;9.250;2023-11-19T19:58:53;5.57;;;2.53;;
5454;SDS011;2750;49.050;9.250;2023-11-19T20:03:55;5.17;;;1.90;;
5454;SDS011;2750;49.050;9.250;2023-11-19T20:08:58;5.53;;;2.27;;
5454;SDS011;2750;49.050;9.250;2023-11-19T20:14:01;9.10;;;2.67;;
5454;SDS011;2750;49.050;9.250;2023-11-19T20:19:03;7.53;;;2.27;;
5454;SDS011;2750;49.050;9.250;2023-11-19T20:24:07;9.27;;;2.20;;
5454;SDS011;2750;49.050;9.250;2023-11-19T20:29:09;9.93;;;2.70;;
5454;SDS011;2750;49.050;9.250;2023-11-19T20:34:10;7.70;;;2.60;;
5454;SDS011;2750;49.050;9.250;2023-11-19T20:39:14;5.97;;;2.10;;
5454;SDS011;2750;49.050;9.250;2023-11-19T20:44:15;6.37;;;2.67;;
5454;SDS011;2750;49.050;9.250;2023-11-19T20:49:17;9.47;;;2.93;;
5454;SDS011;2750;49.050;9.250;2023-11-19T20:54:22;7.43;;;2.80;;
5454;SDS011;2750;49.050;9.250;2023-11-19T20:59:23;9.60;;;2.90;;
5454;SDS011;2750;49.050;9.250;2023-11-19T21:04:25;8.57;;;2.80;;
5454;SDS011;2750;49.050;9.250;2023-11-19T21:09:28;11.63;;;3.43;;
5454;SDS011;2750;49.050;9.250;2023-11-19T21:14:29;12.27;;;6.17;;
5454;SDS011;2750;49.050;9.250;2023-11-19T21:19:32;6.83;;;3.63;;
5454;SDS011;2750;49.050;9.250;2023-11-19T21:24:35;10.27;;;3.20;;
5454;SDS011;2750;49.050;9.250;2023-11-19T21:29:36;10.37;;;3.20;;
5454;SDS011;2750;49.050;9.250;2023-11-19T21:34:38;9.33;;;3.03;;
5454;SDS011;2750;49.050;9.250;2023-11-19T21:39:42;9.97;;;2.17;;
5454;SDS011;2750;49.050;9.250;2023-11-19T21:44:44;12.17;;;2.83;;
5454;SDS011;2750;49.050;9.250;2023-11-19T21:49:45;12.23;;;3.80;;
5454;SDS011;2750;49.050;9.250;2023-11-19T21:54:49;8.23;;;2.43;;
5454;SDS011;2750;49.050;9.250;2023-11-19T21:59:50;9.87;;;2.83;;
5454;SDS011;2750;49.050;9.250;2023-11-19T22:04:52;11.53;;;3.17;;
5454;SDS011;2750;49.050;9.250;2023-11-19T22:09:55;6.73;;;2.20;;
5454;SDS011;2750;49.050;9.250;2023-11-19T22:14:56;9.00;;;2.87;;
5454;SDS011;2750;49.050;9.250;2023-11-19T22:19:57;12.77;;;2.80;;
5454;SDS011;2750;49.050;9.250;2023-11-19T22:25:00;8.80;;;2.87;;
5454;SDS011;2750;49.050;9.250;2023-11-19T22:30:02;10.30;;;2.73;;
5454;SDS011;2750;49.050;9.250;2023-11-19T22:35:04;9.53;;;2.63;;
5454;SDS011;2750;49.050;9.250;2023-11-19T22:40:08;9.67;;;2.70;;
5454;SDS011;2750;49.050;9.250;2023-11-19T22:45:12;11.17;;;2.63;;
5454;SDS011;2750;49.050;9.250;2023-11-19T22:50:13;12.83;;;2.90;;
5454;SDS011;2750;49.050;9.250;2023-11-19T22:55:16;8.93;;;2.83;;
5454;SDS011;2750;49.050;9.250;2023-11-19T23:00:18;12.67;;;3.13;;
5454;SDS011;2750;49.050;9.250;2023-11-19T23:05:27;9.73;;;2.97;;
5454;SDS011;2750;49.050;9.250;2023-11-19T23:10:32;10.03;;;3.33;;
5454;SDS011;2750;49.050;9.250;2023-11-19T23:15:34;8.50;;;3.00;;
5454;SDS011;2750;49.050;9.250;2023-11-19T23:20:35;10.53;;;2.97;;
5454;SDS011;2750;49.050;9.250;2023-11-19T23:25:38;7.83;;;2.80;;
5454;SDS011;2750;49.050;9.250;2023-11-19T23:30:39;8.67;;;3.03;;
5454;SDS011;2750;49.050;9.250;2023-11-19T23:35:41;9.37;;;2.70;;
5454;SDS011;2750;49.050;9.250;2023-11-19T23:40:44;9.63;;;2.87;;
5454;SDS011;2750;49.050;9.250;2023-11-19T23:45:46;9.23;;;2.53;;
5454;SDS011;2750;49.050;9.250;2023-11-19T23:50:48;11.57;;;3.33;;
5454;SDS011;2750;49.050;9.250;2023-11-19T23:55:51;12.87;;;2.87;;
